AirNav   Everest Fuels
 
 414 users online  

25IN Reid-Eash Airport
Howe, Indiana, USA

GOING TO HOWE?


FAA INFORMATION EFFECTIVE 26 JANUARY 2023

Location

FAA Identifier: 25IN
Lat/Long: 41-42-10.1820N 085-25-09.9280W
41-42.169700N 085-25.165467W
41.7028283,-85.4194244
(estimated)
Elevation: 879 ft. / 267.9 m (surveyed)
Variation: 03W (1985)
From city: 1 mile S of HOWE, IN
Time zone: UTC -5 (UTC -4 during Daylight Saving Time)
Zip code: 46746

Airport Operations

Airport use: Private use. Permission required prior to landing
Control tower: no
ARTCC: CHICAGO CENTER
FSS: TERRE HAUTE FLIGHT SERVICE STATION
Attendance: UNATNDD
Wind indicator: yes
Segmented circle: no
Lights: RY LGTS AVAILABLE BY REQ ONLY - 123.0.
Beacon: white-green (lighted land airport)

Airport Communications

UNICOM: 123.0
WX AWOS-3 at IRS (7 nm N): 121.325 (269-659-8715)
WX AWOS-3 at ANQ (16 nm E): 118.175 (260-668-5630)
WX AWOS-3P at C62 (16 nm SE): 119.925 (260-347-2967)
WX AWOS-3 at HAI (17 nm NW): 119.975 (269-273-6705)
WX ASOS at GSH (20 nm SW): 121.45 (574-642-4231)
  • UNICOM NOT MONTRD.

Nearby radio navigation aids

VOR radial/distance  VOR name  Freq  Var
OLKr010/(27.6)WEBSTER LAKE VOR110.4003W
GSHr069/29.3GOSHEN VORTAC113.7000E
AZOr170/32.6KALAMAZOO VOR/DME109.0001W
LFDr239/36.3LITCHFIELD VOR/DME111.2005W

 
NDB name  Hdg/Dist  Freq  Var  ID
STURGIS178/6.738204WIRS .. .-. ...

Airport Services

Parking: tiedowns
Bottled oxygen: NONE
Bulk oxygen: NONE

Runway Information

Runway 18/36

Dimensions: 2635 x 120 ft. / 803 x 37 m
Surface: turf, in fair condition
Runway edge lights: low intensity
NSTD LIRL & THR LGTS. RWY WITHIN DSPLCD THRS NOT LGTD.
Runway edge markings: GREEN PADDLES MRK DSPLCD THRS.
RUNWAY 18  RUNWAY 36
Traffic pattern: leftleft
Displaced threshold: 225 ft.
NGT DSPLCD THR 405'.
295 ft.
Obstructions: 5 ft. brush
APCH RATIO 20:1 AT DSPLCD THR OVER 55'TREES 875'FM RWY PHYSICAL END.
15 ft. road, 10 ft. from runway
APCH RATIO 20:1 AT DSPLCD THR.

Airport Ownership and Management from official FAA records

Ownership: Privately-owned
Owner: WILLIAM REID
0425E 400N
HOWE, IN 46746
Phone (219) 562-2138
260-562-2138.
Manager: WILLIAM REID
0425E 400N
HOWE, IN 46746
Phone 260-562-2138

Airport Operational Statistics

Aircraft based on the field: 7
Single engine airplanes: 6
Ultralights: 1
    
Aircraft operations: avg 50/week *
58% local general aviation
42% transient general aviation
* for 12-month period ending 20 June 1984

Additional Remarks

TURF ADJ RWY USED AS TWY WEST SIDE ONLY.
LAND AT YOUR OWN RISK AND WITH PERMISSION.
FOR CD CTC GREAT LAKES APCH AT 269-459-3344, WHEN APCH CLSD CTC CHICAGO ARTCC AT 630-906-8921.

Instrument Procedures

There are no published instrument procedures at 25IN.

Some nearby airports with instrument procedures:

KIRS - Kirsch Municipal Airport (7 nm N)
KANQ - Tri-State Steuben County Airport (16 nm E)
C62 - Kendallville Municipal Airport (16 nm SE)
KHAI - Three Rivers Municipal/Dr Haines Airport (17 nm NW)
KGSH - Goshen Municipal Airport (20 nm SW)
 
Loc | Ops | Rwys | IFR | FBO | Links
Com | Nav | Svcs | Stats | Notes
Area around 25IN (Reid-Eash Airport)
 
Road maps at: MapQuest Bing Google
 
Aerial photo
No photo
 
Sectional chart

 
Airport distance calculator
Flying to Reid-Eash Airport? Find the distance to fly.

From to 25IN

Sunrise and sunset
Times for 05-Feb-2023
 Local
(UTC-5)
 Zulu
(UTC)
Morning civil twilight07:2112:21
Sunrise07:5112:51
Sunset18:0123:01
Evening civil twilight18:3023:30

Current date and time
Zulu (UTC)  05-Feb-2023 08:26:31
Local (UTC-5)  05-Feb-2023 03:26:31
 
METAR
KIRS 
6nm N 
050815Z AUTO 23014KT 10SM CLR 02/M04 A2991 RMK AO2 T00201040
KANQ 
16nm E 
050815Z AUTO 22013G24KT 10SM SCT040 SCT120 03/M05 A2993 RMK AO2
KC62 
16nm SE 
050815Z AUTO 23014G21KT 10SM CLR 02/M03 A2996 RMK AO2 T00301035
KHAI 
17nm NW 
050815Z AUTO 21013KT 10SM CLR 02/M04 A2991 RMK AO2 T00211037
KGSH 
19nm SW 
050753Z AUTO 22012G20KT 10SM CLR 03/M04 A2995 RMK AO2 SLP148 T00331044
TAF
KAZO 
32nm N 
050540Z 0506/0606 20012KT P6SM BKN150 WS020/23040KT FM051200 21012KT P6SM BKN035 FM051400 21010KT 6SM BR VCSH OVC025 FM051900 24009KT P6SM OVC015
KBTL 
38nm N 
050540Z 0506/0606 20008KT P6SM BKN150 WS020/23040KT FM051100 21014KT P6SM BKN035 FM051500 23010KT 6SM BR VCSH OVC019 FM051800 25010KT P6SM OVC015
KSBN 
40nm W 
041730Z 0418/0518 20015G25KT P6SM SCT250 FM050100 21015KT P6SM BKN200 WS020/25050KT FM051400 23012G20KT P6SM OVC010
NOTAMs
Click for the latest NOTAMs
NOTAMs are issued by the DoD/FAA and will open in a separate window not controlled by AirNav.

 

 
 

Would you like to see your business listed on this page?

 If your business provides an interesting product or service to pilots, flight crews, aircraft, or users of the Reid-Eash Airport, you should consider listing it here.  To start the listing process, click on the button below
 
Add a business
 

Other Pages about Reid-Eash Airport

Update a link
 
Copyright © AirNav, LLC. All rights reserved. Privacy Policy  Contact